createdAt,value
2018-01-11T00:02:19.883Z,3.60
2018-01-11T00:04:47.319Z,3.50
2018-01-11T00:07:14.768Z,3.50
2018-01-11T00:09:42.195Z,3.40
2018-01-11T00:12:09.643Z,3.50
2018-01-11T00:14:37.075Z,3.40
2018-01-11T00:17:04.500Z,3.40
2018-01-11T00:19:32.696Z,3.40
2018-01-11T00:22:00.123Z,3.30
2018-01-11T00:24:27.556Z,3.30
2018-01-11T00:26:55.008Z,3.20
2018-01-11T00:29:22.447Z,3.20
2018-01-11T00:31:49.884Z,3.20
2018-01-11T00:34:17.321Z,3.20
2018-01-11T00:36:45.528Z,3.20
2018-01-11T00:39:12.951Z,3.10
2018-01-11T00:41:40.401Z,3.20
2018-01-11T00:44:07.815Z,3.20
2018-01-11T00:46:35.246Z,3.30
2018-01-11T00:49:03.440Z,3.30
2018-01-11T00:51:30.867Z,3.30
2018-01-11T00:53:58.296Z,3.40
2018-01-11T00:56:25.787Z,3.50
2018-01-11T00:58:53.230Z,3.50
2018-01-11T01:01:20.667Z,3.50
2018-01-11T01:03:48.115Z,3.50
2018-01-11T01:06:15.539Z,3.50
2018-01-11T01:08:42.979Z,3.50
2018-01-11T01:11:10.408Z,3.50
2018-01-11T01:13:37.844Z,3.50
2018-01-11T01:16:05.293Z,3.50
2018-01-11T01:18:32.720Z,3.50
2018-01-11T01:21:00.152Z,3.50
2018-01-11T01:23:28.355Z,3.50
2018-01-11T01:25:55.784Z,3.50
2018-01-11T01:28:23.249Z,3.50
2018-01-11T01:30:50.676Z,3.50
2018-01-11T01:33:18.119Z,3.50
2018-01-11T01:35:45.540Z,3.50
2018-01-11T01:38:12.972Z,3.40
2018-01-11T01:40:40.401Z,3.30
2018-01-11T01:43:08.593Z,3.40
2018-01-11T01:45:36.017Z,3.40
2018-01-11T01:48:03.446Z,3.40
2018-01-11T01:50:30.878Z,3.30
2018-01-11T01:52:59.081Z,3.00
2018-01-11T01:55:26.542Z,2.90
2018-01-11T01:57:53.960Z,2.80
2018-01-11T02:00:21.384Z,2.70
2018-01-11T02:02:48.805Z,2.70
2018-01-11T02:05:16.231Z,2.80
2018-01-11T03:25:24.612Z,1.50
2018-01-11T03:27:52.061Z,1.50
2018-01-11T03:30:19.488Z,1.50
2018-01-11T03:32:46.924Z,1.40
2018-01-11T03:35:14.343Z,1.40
2018-01-11T03:37:42.536Z,1.40
2018-01-11T03:40:09.963Z,1.40
2018-01-11T03:42:37.406Z,1.40
2018-01-11T03:45:04.835Z,1.50
2018-01-11T03:47:33.020Z,1.40
2018-01-11T03:50:00.479Z,1.40
2018-01-11T03:52:27.928Z,1.40
2018-01-11T03:54:55.360Z,1.40
2018-01-11T03:57:22.780Z,1.50
2018-01-11T03:59:50.207Z,1.50
2018-01-11T04:02:17.633Z,1.50
2018-01-11T04:04:45.823Z,1.50
2018-01-11T04:07:13.252Z,1.50
2018-01-11T04:09:40.691Z,1.50
2018-01-11T04:12:08.864Z,1.30
2018-01-11T04:14:36.296Z,1.30
2018-01-11T04:17:03.752Z,1.30
2018-01-11T04:19:31.181Z,1.30
2018-01-11T04:21:58.615Z,1.30
2018-01-11T04:24:26.036Z,1.30
2018-01-11T04:26:54.235Z,1.30
2018-01-11T04:29:21.675Z,1.30
2018-01-11T04:31:49.103Z,1.30
2018-01-11T04:34:16.543Z,1.30
2018-01-11T04:36:43.982Z,1.30
2018-01-11T04:39:11.423Z,1.30
2018-01-11T04:41:39.604Z,1.20
2018-01-11T04:44:07.024Z,1.20
2018-01-11T04:46:34.458Z,1.20
2018-01-11T04:49:02.672Z,1.20
2018-01-11T04:51:30.089Z,1.20
2018-01-11T04:53:57.524Z,1.20
2018-01-11T04:56:24.945Z,1.10
2018-01-11T04:58:52.379Z,1.10
2018-01-11T05:01:20.561Z,1.00
2018-01-11T05:03:47.996Z,0.90
2018-01-11T05:06:15.431Z,0.90
2018-01-11T05:08:42.875Z,0.80
2018-01-11T05:11:10.315Z,0.80
2018-01-11T05:13:37.748Z,0.80
2018-01-11T05:16:05.178Z,0.80
2018-01-11T05:18:33.368Z,0.80
2018-01-11T05:21:00.795Z,0.70
2018-01-11T05:23:28.231Z,0.80
2018-01-11T05:25:55.672Z,0.80
2018-01-11T05:28:23.873Z,1.00
2018-01-11T05:30:51.314Z,1.00
2018-01-11T05:33:18.767Z,1.10
2018-01-11T05:35:46.196Z,1.10
2018-01-11T05:38:13.648Z,1.10
2018-01-11T05:40:41.076Z,1.20
2018-01-11T05:43:08.500Z,1.20
2018-01-11T05:45:35.935Z,1.30
2018-01-11T05:48:03.353Z,1.40
2018-01-11T05:50:30.783Z,1.60
2018-01-11T05:52:58.217Z,1.70
2018-01-11T05:55:25.640Z,1.70
2018-01-11T05:57:53.076Z,1.70
2018-01-11T06:00:20.505Z,1.70
2018-01-11T06:02:47.939Z,1.80
2018-01-11T06:05:15.363Z,1.80
2018-01-11T06:07:42.792Z,1.70
2018-01-11T06:10:10.980Z,2.10
2018-01-11T06:12:38.424Z,2.10
2018-01-11T06:15:05.857Z,2.20
2018-01-11T06:17:33.312Z,2.20
2018-01-11T06:20:00.727Z,2.20
2018-01-11T06:22:28.152Z,2.30
2018-01-11T06:24:56.353Z,2.50
2018-01-11T06:27:23.782Z,2.40
2018-01-11T06:29:51.221Z,2.50
2018-01-11T06:32:18.648Z,2.50
2018-01-11T06:34:46.092Z,2.30
2018-01-11T06:37:13.592Z,2.20
2018-01-11T06:39:41.024Z,2.30
2018-01-11T06:42:08.463Z,2.30
2018-01-11T06:44:35.884Z,2.10
2018-01-11T06:47:03.324Z,2.30
2018-01-11T06:49:30.784Z,2.60
2018-01-11T06:51:58.228Z,2.50
2018-01-11T06:54:25.690Z,2.40
2018-01-11T06:56:53.113Z,2.30
2018-01-11T06:59:20.520Z,2.20
2018-01-11T07:01:47.970Z,2.20
2018-01-11T07:04:15.397Z,2.10
2018-01-11T07:06:42.831Z,2.50
2018-01-11T07:09:10.251Z,2.60
2018-01-11T07:11:38.436Z,2.20
2018-01-11T07:14:05.870Z,2.20
2018-01-11T07:16:33.301Z,2.10
2018-01-11T07:19:00.727Z,1.90
2018-01-11T07:21:28.156Z,1.60
2018-01-11T07:23:56.348Z,1.50
2018-01-11T07:26:23.771Z,1.50
2018-01-11T07:28:51.213Z,1.40
2018-01-11T07:31:18.684Z,1.30
2018-01-11T07:33:46.104Z,1.40
2018-01-11T07:36:13.574Z,1.40
2018-01-11T07:38:40.972Z,1.40
2018-01-11T07:41:08.408Z,1.30
2018-01-11T07:43:36.600Z,1.30
2018-01-11T07:46:04.024Z,1.30
2018-01-11T07:48:31.451Z,1.20
2018-01-11T07:50:58.893Z,1.10
2018-01-11T07:53:27.076Z,1.10
2018-01-11T07:55:54.516Z,1.00
2018-01-11T07:58:21.956Z,1.10
2018-01-11T08:00:49.384Z,1.10
2018-01-11T08:03:16.834Z,1.10
2018-01-11T08:05:44.256Z,1.10
2018-01-11T08:08:11.690Z,1.10
2018-01-11T08:10:39.877Z,1.10
2018-01-11T08:13:07.322Z,1.00
2018-01-11T08:15:34.740Z,1.10
2018-01-11T08:18:02.172Z,1.10
2018-01-11T08:20:30.360Z,1.00
2018-01-11T08:22:57.814Z,1.00
2018-01-11T08:25:25.260Z,1.00
2018-01-11T08:27:52.688Z,0.90
2018-01-11T08:30:20.132Z,0.90
2018-01-11T08:32:47.567Z,1.00
2018-01-11T08:35:14.996Z,1.00
2018-01-11T08:37:42.424Z,1.00
2018-01-11T08:40:10.640Z,1.20
2018-01-11T08:42:38.056Z,1.20
2018-01-11T08:45:05.488Z,1.20
2018-01-11T08:47:32.921Z,1.20
2018-01-11T08:50:00.749Z,1.30
2018-01-11T08:52:28.158Z,1.40
2018-01-11T08:54:55.584Z,1.40
2018-01-11T08:57:23.037Z,1.50
2018-01-11T08:59:50.460Z,1.60
2018-01-11T09:02:17.896Z,1.70
2018-01-11T09:04:45.328Z,1.70
2018-01-11T09:07:12.757Z,1.80
2018-01-11T09:09:40.948Z,1.90
2018-01-11T09:12:08.379Z,1.90
2018-01-11T09:14:35.837Z,2.00
2018-01-11T09:17:03.248Z,2.10
2018-01-11T09:19:31.501Z,2.70
2018-01-11T09:21:58.868Z,2.70
2018-01-11T09:24:26.312Z,2.90
2018-01-11T09:26:54.495Z,3.30
2018-01-11T09:29:21.921Z,3.30
2018-01-11T09:31:49.364Z,3.30
2018-01-11T09:34:16.795Z,3.30
2018-01-11T09:36:44.222Z,3.60
2018-01-11T09:39:12.418Z,4.10
2018-01-11T09:41:39.841Z,4.00
2018-01-11T09:44:07.283Z,4.20
2018-01-11T09:46:34.712Z,4.10
2018-01-11T09:49:02.205Z,4.00
2018-01-11T09:51:29.624Z,4.10
2018-01-11T09:53:57.066Z,4.20
2018-01-11T09:56:24.491Z,4.20
2018-01-11T09:58:51.919Z,4.40
2018-01-11T10:01:20.123Z,4.10
2018-01-11T10:03:47.574Z,4.00
2018-01-11T10:06:14.997Z,3.90
2018-01-11T10:08:42.412Z,3.80
2018-01-11T10:11:09.832Z,3.90
2018-01-11T10:13:38.064Z,4.30
2018-01-11T10:16:06.255Z,4.60
2018-01-11T10:18:33.672Z,4.60
2018-01-11T10:21:01.115Z,4.90
2018-01-11T10:23:28.539Z,5.10
2018-01-11T10:25:55.975Z,5.00
2018-01-11T10:28:23.398Z,5.20
2018-01-11T10:30:50.825Z,5.10
2018-01-11T10:33:18.343Z,5.00
2018-01-11T10:35:45.796Z,5.10
2018-01-11T10:38:13.244Z,4.90
2018-01-11T10:40:40.668Z,4.90
2018-01-11T10:43:08.105Z,4.90
2018-01-11T10:45:35.528Z,5.00
2018-01-11T10:48:02.967Z,5.00
2018-01-11T10:50:30.391Z,5.00
2018-01-11T10:52:58.588Z,5.00
2018-01-11T10:55:26.004Z,5.00
2018-01-11T10:57:53.436Z,5.30
2018-01-11T11:00:21.631Z,5.50
2018-01-11T11:02:49.826Z,5.50
2018-01-11T11:05:17.245Z,5.70
2018-01-11T11:07:44.668Z,5.90
2018-01-11T11:10:12.102Z,6.00
2018-01-11T11:12:39.531Z,6.70
2018-01-11T11:15:06.968Z,7.10
2018-01-11T11:17:35.896Z,7.10
2018-01-11T11:20:03.343Z,7.10
2018-01-11T11:22:30.751Z,7.90
2018-01-11T11:24:58.976Z,8.60
2018-01-11T11:27:26.375Z,8.60
2018-01-11T11:29:53.830Z,9.00
2018-01-11T11:32:21.236Z,9.70
2018-01-11T11:34:49.445Z,8.40
2018-01-11T11:37:16.871Z,8.40
2018-01-11T11:39:44.297Z,8.80
2018-01-11T11:42:11.725Z,8.70
2018-01-11T11:44:39.920Z,10.10
2018-01-11T11:47:07.348Z,10.10
2018-01-11T11:49:34.815Z,10.80
2018-01-11T11:52:02.253Z,10.90
2018-01-11T11:54:29.680Z,10.80
2018-01-11T11:56:57.116Z,10.40
2018-01-11T11:59:24.604Z,10.20
2018-01-11T12:01:52.025Z,10.90
2018-01-11T12:04:19.464Z,11.10
2018-01-11T12:06:46.879Z,11.00
2018-01-11T12:09:14.325Z,11.00
2018-01-11T12:11:41.773Z,11.40
2018-01-11T12:14:09.204Z,11.70
2018-01-11T12:16:36.650Z,10.70
2018-01-11T12:19:04.084Z,10.70
2018-01-11T12:21:31.512Z,9.80
2018-01-11T12:23:59.792Z,10.90
2018-01-11T12:26:27.238Z,10.90
2018-01-11T12:28:54.659Z,11.50
2018-01-11T12:31:22.101Z,12.10
2018-01-11T12:33:49.530Z,12.70
2018-01-11T12:36:17.731Z,12.80
2018-01-11T12:38:45.153Z,12.80
2018-01-11T12:41:12.587Z,12.90
2018-01-11T12:43:40.012Z,12.80
2018-01-11T12:46:08.212Z,12.00
2018-01-11T12:48:35.647Z,12.00
2018-01-11T12:51:03.114Z,12.50
2018-01-11T12:53:30.532Z,13.00
2018-01-11T12:55:57.947Z,12.40
2018-01-11T12:58:25.398Z,11.90
2018-01-11T13:00:52.828Z,12.40
2018-01-11T13:03:21.040Z,12.50
2018-01-11T13:05:48.475Z,12.50
2018-01-11T13:08:15.912Z,12.00
2018-01-11T13:10:43.337Z,11.70
2018-01-11T13:13:10.761Z,11.40
2018-01-11T13:15:38.191Z,11.30
2018-01-11T13:18:06.411Z,12.80
2018-01-11T13:20:33.831Z,12.80
2018-01-11T13:23:01.283Z,13.40
2018-01-11T13:25:28.672Z,13.40
2018-01-11T13:27:56.888Z,12.40
2018-01-11T13:30:24.301Z,12.40
2018-01-11T13:32:51.736Z,12.30
2018-01-11T13:35:19.164Z,12.50
2018-01-11T13:37:46.585Z,12.00
2018-01-11T13:40:14.789Z,12.60
2018-01-11T13:42:42.208Z,12.60
2018-01-11T13:45:09.632Z,12.20
2018-01-11T13:47:37.852Z,11.30
2018-01-11T13:50:05.292Z,11.30
2018-01-11T13:52:32.723Z,11.30
2018-01-11T13:55:00.163Z,11.50
2018-01-11T13:57:27.596Z,11.70
2018-01-11T13:59:55.015Z,12.10
2018-01-11T14:02:22.460Z,12.20
2018-01-11T14:04:50.640Z,12.30
2018-01-11T14:07:18.068Z,12.30
2018-01-11T14:09:45.518Z,12.20
2018-01-11T14:12:12.952Z,12.10
2018-01-11T14:14:41.148Z,12.20
2018-01-11T14:17:08.632Z,12.20
2018-01-11T14:19:36.060Z,12.40
2018-01-11T14:22:03.516Z,12.10
2018-01-11T14:24:30.931Z,12.10
2018-01-11T14:26:58.348Z,11.60
2018-01-11T14:29:25.828Z,11.50
2018-01-11T14:31:53.252Z,11.50
2018-01-11T14:34:20.680Z,11.40
2018-01-11T14:36:48.112Z,11.20
2018-01-11T14:39:15.556Z,10.90
2018-01-11T14:41:43.004Z,10.50
2018-01-11T14:44:10.419Z,10.20
2018-01-11T14:46:37.900Z,10.10
2018-01-11T14:49:05.349Z,9.80
2018-01-11T14:51:32.805Z,9.50
2018-01-11T14:54:01.728Z,9.40
2018-01-11T14:56:29.156Z,9.40
2018-01-11T14:58:57.351Z,8.80
2018-01-11T15:01:24.806Z,8.80
2018-01-11T15:03:52.195Z,8.80
2018-01-11T15:06:20.392Z,8.50
2018-01-11T15:08:47.803Z,8.50
2018-01-11T15:11:15.234Z,8.30
2018-01-11T15:13:42.659Z,8.20
2018-01-11T15:16:10.097Z,8.20
2018-01-11T15:18:37.507Z,8.00
2018-01-11T15:21:04.932Z,7.80
2018-01-11T15:23:32.352Z,7.80
2018-01-11T15:26:00.617Z,7.70
2018-01-11T15:28:27.983Z,7.70
2018-01-11T15:30:55.409Z,7.60
2018-01-11T15:33:23.596Z,7.40
2018-01-11T15:35:51.020Z,7.40
2018-01-11T15:38:18.449Z,7.40
2018-01-11T15:40:46.652Z,7.20
2018-01-11T15:43:14.081Z,7.20
2018-01-11T15:45:41.540Z,7.10
2018-01-11T15:48:08.936Z,7.10
2018-01-11T15:50:36.365Z,7.00
2018-01-11T15:53:04.569Z,6.90
2018-01-11T15:55:32.003Z,6.80
2018-01-11T15:57:59.432Z,6.80
2018-01-11T16:00:26.886Z,6.80
2018-01-11T16:02:54.365Z,6.70
2018-01-11T16:05:21.793Z,6.70
2018-01-11T16:07:49.224Z,6.70
2018-01-11T16:10:16.661Z,6.70
2018-01-11T16:12:44.080Z,6.70
2018-01-11T16:15:11.536Z,6.70
2018-01-11T16:17:39.773Z,6.70
2018-01-11T16:20:07.198Z,6.70
2018-01-11T16:22:34.620Z,6.70
2018-01-11T16:25:02.068Z,6.80
2018-01-11T16:27:29.489Z,6.70
2018-01-11T16:29:56.912Z,6.70
2018-01-11T16:32:24.357Z,6.70
2018-01-11T16:34:51.791Z,6.70
2018-01-11T16:37:20.028Z,6.70
2018-01-11T16:39:47.463Z,6.60
2018-01-11T16:42:14.901Z,6.60
2018-01-11T16:44:42.294Z,6.70
2018-01-11T16:47:09.771Z,6.60
2018-01-11T16:49:37.178Z,6.60
2018-01-11T16:52:04.616Z,6.60
2018-01-11T16:54:32.037Z,6.60
2018-01-11T16:57:00.248Z,6.60
2018-01-11T16:59:27.720Z,6.50
2018-01-11T17:01:55.152Z,6.50
2018-01-11T17:04:22.564Z,6.50
2018-01-11T17:06:50.004Z,6.50
2018-01-11T17:09:17.441Z,6.40
2018-01-11T17:11:44.896Z,6.40
2018-01-11T17:14:12.332Z,6.40
2018-01-11T17:16:39.768Z,6.40
2018-01-11T17:19:07.214Z,6.40
2018-01-11T17:21:34.643Z,6.40
2018-01-11T17:24:02.112Z,6.40
2018-01-11T17:26:29.543Z,6.30
2018-01-11T17:28:56.968Z,6.30
2018-01-11T17:31:24.407Z,6.20
2018-01-11T17:33:51.823Z,6.10
2018-01-11T17:36:19.253Z,6.00
2018-01-11T17:38:47.452Z,5.90
2018-01-11T17:41:14.896Z,5.80
2018-01-11T17:43:42.344Z,5.80
2018-01-11T17:46:09.804Z,5.80
2018-01-11T17:48:37.229Z,5.70
2018-01-11T17:51:04.652Z,5.70
2018-01-11T17:53:32.149Z,5.70
2018-01-11T17:55:59.582Z,5.70
2018-01-11T17:58:27.016Z,5.70
2018-01-11T18:00:54.464Z,5.60
2018-01-11T18:03:21.888Z,5.60
2018-01-11T18:05:49.310Z,5.50
2018-01-11T18:08:16.747Z,5.50
2018-01-11T18:10:44.172Z,5.50
2018-01-11T18:13:12.381Z,5.40
2018-01-11T18:15:39.792Z,5.40
2018-01-11T18:18:07.992Z,5.40
2018-01-11T18:20:35.431Z,5.30
2018-01-11T18:23:03.630Z,5.30
2018-01-11T18:25:31.143Z,5.30
2018-01-11T18:27:58.575Z,5.20
2018-01-11T18:30:26.013Z,5.20
2018-01-11T18:32:53.458Z,5.10
2018-01-11T18:35:20.901Z,5.10
2018-01-11T18:37:48.316Z,4.90
2018-01-11T18:40:15.764Z,4.90
2018-01-11T18:42:43.182Z,4.80
2018-01-11T18:45:11.388Z,4.70
2018-01-11T18:47:38.815Z,4.70
2018-01-11T18:50:06.255Z,4.70
2018-01-11T18:52:33.686Z,4.70
2018-01-11T18:55:01.142Z,4.60
2018-01-11T18:57:28.575Z,4.60
2018-01-11T18:59:56.056Z,4.70
2018-01-11T19:02:23.488Z,4.70
2018-01-11T19:04:50.948Z,4.80
2018-01-11T19:07:18.375Z,4.80
2018-01-11T19:09:45.828Z,4.90
2018-01-11T19:12:13.257Z,4.80
2018-01-11T19:14:40.696Z,4.80
2018-01-11T19:17:08.131Z,4.70
2018-01-11T19:19:35.558Z,4.70
2018-01-11T19:22:03.761Z,4.50
2018-01-11T19:24:31.283Z,4.60
2018-01-11T19:26:58.724Z,4.50
2018-01-11T19:29:26.179Z,4.40
2018-01-11T19:31:53.591Z,4.30
2018-01-11T19:34:21.786Z,4.30
2018-01-11T19:36:49.220Z,4.30
2018-01-11T19:39:16.640Z,4.40
2018-01-11T19:41:44.071Z,4.40
2018-01-11T19:44:12.267Z,4.50
2018-01-11T19:46:39.692Z,4.40
2018-01-11T19:49:07.124Z,4.60
2018-01-11T19:51:34.584Z,4.60
2018-01-11T19:54:02.078Z,4.50
2018-01-11T19:56:29.494Z,4.30
2018-01-11T19:58:56.936Z,4.50
2018-01-11T20:01:24.410Z,4.50
2018-01-11T20:03:51.828Z,4.50
2018-01-11T20:06:19.288Z,4.60
2018-01-11T20:08:46.762Z,4.70
2018-01-11T20:11:14.956Z,4.50
2018-01-11T20:13:42.397Z,4.50
2018-01-11T20:16:09.866Z,4.60
2018-01-11T20:18:37.295Z,4.50
2018-01-11T20:21:04.752Z,4.50
2018-01-11T20:23:32.186Z,4.30
2018-01-11T20:25:59.614Z,4.30
2018-01-11T20:28:27.052Z,4.40
2018-01-11T20:30:54.519Z,4.30
2018-01-11T20:33:21.994Z,4.10
2018-01-11T20:35:50.184Z,4.00
2018-01-11T20:38:17.611Z,4.00
2018-01-11T20:40:45.095Z,4.10
2018-01-11T20:43:12.560Z,4.10
2018-01-11T20:45:39.968Z,4.00
2018-01-11T20:48:07.412Z,4.10
2018-01-11T20:50:34.883Z,4.10
2018-01-11T20:53:02.354Z,4.00
2018-01-11T20:55:29.776Z,4.10
2018-01-11T20:57:57.972Z,3.80
2018-01-11T21:00:25.406Z,3.80
2018-01-11T21:02:52.868Z,3.70
2018-01-11T21:05:20.316Z,3.70
2018-01-11T21:07:47.757Z,3.80
2018-01-11T21:10:15.225Z,3.80
2018-01-11T21:12:42.687Z,3.70
2018-01-11T21:15:10.876Z,3.60
2018-01-11T21:17:38.308Z,3.60
2018-01-11T21:20:05.809Z,3.70
2018-01-11T21:22:33.228Z,3.60
2018-01-11T21:25:00.660Z,3.70
2018-01-11T21:27:28.072Z,3.50
2018-01-11T21:29:55.513Z,3.40
2018-01-11T21:32:22.983Z,3.40
2018-01-11T21:34:50.444Z,3.50
2018-01-11T21:37:17.880Z,3.50
2018-01-11T21:39:45.324Z,3.60
2018-01-11T21:42:12.763Z,3.60
2018-01-11T21:44:40.224Z,3.50
2018-01-11T21:47:07.640Z,3.50
2018-01-11T21:49:35.120Z,3.50
2018-01-11T21:52:02.533Z,3.70
2018-01-11T21:54:29.973Z,3.70
2018-01-11T21:56:57.403Z,3.70
2018-01-11T21:59:24.836Z,3.70
2018-01-11T22:01:52.312Z,3.70
2018-01-11T22:04:19.736Z,3.80
2018-01-11T22:06:47.196Z,3.80
2018-01-11T22:09:14.616Z,3.70
2018-01-11T22:11:42.044Z,3.70
2018-01-11T22:14:09.476Z,3.70
2018-01-11T22:16:36.923Z,3.80
2018-01-11T22:19:04.340Z,3.70
2018-01-11T22:21:31.832Z,3.70
2018-01-11T22:23:59.256Z,3.70
2018-01-11T22:26:26.710Z,3.70
2018-01-11T22:28:54.139Z,3.70
2018-01-11T22:31:21.588Z,3.70
2018-01-11T22:33:49.024Z,3.60
2018-01-11T22:36:16.452Z,3.50
2018-01-11T22:38:43.884Z,3.50
2018-01-11T22:41:11.326Z,3.50
2018-01-11T22:43:38.751Z,3.50
2018-01-11T22:46:06.952Z,3.60
2018-01-11T22:48:34.367Z,3.60
2018-01-11T22:51:01.801Z,3.60
2018-01-11T22:53:29.224Z,3.40
2018-01-11T22:55:57.431Z,3.20
2018-01-11T22:58:24.875Z,3.20
2018-01-11T23:00:52.300Z,3.20
2018-01-11T23:03:19.740Z,3.20
2018-01-11T23:05:47.179Z,3.00
2018-01-11T23:08:14.620Z,2.90
2018-01-11T23:10:42.044Z,3.10
2018-01-11T23:13:09.479Z,3.30
2018-01-11T23:15:37.680Z,3.30
2018-01-11T23:18:05.141Z,3.40
2018-01-11T23:20:32.571Z,3.20
2018-01-11T23:22:59.999Z,3.10
2018-01-11T23:25:27.433Z,3.10
2018-01-11T23:27:54.865Z,3.20
2018-01-11T23:30:22.292Z,3.30
2018-01-11T23:32:49.733Z,3.40
2018-01-11T23:35:17.939Z,3.50
2018-01-11T23:37:45.370Z,3.50
2018-01-11T23:40:12.812Z,3.50
2018-01-11T23:42:40.243Z,3.50
2018-01-11T23:45:07.708Z,3.50
2018-01-11T23:47:35.127Z,3.50
2018-01-11T23:50:03.402Z,3.50
2018-01-11T23:52:30.808Z,3.40
2018-01-11T23:54:58.240Z,3.40
2018-01-11T23:57:26.428Z,3.20
2018-01-11T23:59:53.859Z,3.20
